Time;durP1;ratioP1;P1;durP2;ratioP2;P2;SDS_P1;SDS_P2;PMS_P1;PMS_P2;Temp;Humidity;BMP_temperature;BMP_pressure;BME280_temperature;BME280_humidity;BME280_pressure;Samples;Min_cycle;Max_cycle;Signal;HPM_P1;HPM_P2
2024/01/13 00:01:59;;;;;;;18.58;11.63;;;-1.40;65.90;;;;;;4987675;28;114274;-81
2024/01/13 00:04:27;;;;;;;18.45;10.52;;;-1.40;66.00;;;;;;5003200;28;115138;-82
2024/01/13 00:06:56;;;;;;;17.85;10.38;;;-1.40;66.00;;;;;;4986722;28;114681;-81
2024/01/13 00:09:24;;;;;;;18.98;10.60;;;-1.40;66.00;;;;;;4987602;28;114306;-80
2024/01/13 00:11:51;;;;;;;19.35;10.18;;;-1.40;66.10;;;;;;4988893;28;114695;-80
2024/01/13 00:14:19;;;;;;;20.08;10.88;;;-1.40;66.20;;;;;;4986553;28;115412;-81
2024/01/13 00:16:46;;;;;;;19.42;10.73;;;-1.40;66.20;;;;;;5003206;28;115272;-81
2024/01/13 00:19:13;;;;;;;21.02;11.48;;;-1.40;66.20;;;;;;4988961;28;114317;-81
2024/01/13 00:21:41;;;;;;;16.95;10.35;;;-1.40;66.20;;;;;;4987330;28;114615;-81
2024/01/13 00:24:08;;;;;;;17.23;9.45;;;-1.40;66.20;;;;;;4987906;28;116255;-81
2024/01/13 00:26:36;;;;;;;13.98;9.30;;;-1.40;66.10;;;;;;4989912;28;114735;-81
2024/01/13 00:29:03;;;;;;;19.95;10.15;;;-1.40;66.10;;;;;;4988079;28;114310;-81
2024/01/13 00:31:31;;;;;;;18.50;9.85;;;-1.40;66.10;;;;;;4988751;28;114605;-80
2024/01/13 00:33:59;;;;;;;15.15;9.77;;;-1.40;66.10;;;;;;5021895;28;115121;-81
2024/01/13 00:36:26;;;;;;;15.23;8.48;;;-1.40;66.10;;;;;;4993855;28;115045;-81
2024/01/13 00:38:54;;;;;;;15.20;8.88;;;-1.40;66.10;;;;;;4970948;28;114277;-81
2024/01/13 00:41:22;;;;;;;15.40;9.18;;;-1.40;66.20;;;;;;5005172;28;114260;-81
2024/01/13 00:43:49;;;;;;;18.20;9.40;;;-1.40;66.10;;;;;;4987347;28;115389;-81
2024/01/13 00:46:16;;;;;;;16.90;9.93;;;-1.40;66.20;;;;;;4988602;28;114596;-80
2024/01/13 00:48:44;;;;;;;14.55;8.55;;;-1.40;66.20;;;;;;4988301;28;114532;-81
2024/01/13 00:51:12;;;;;;;15.77;9.00;;;-1.40;66.20;;;;;;4989531;28;114318;-81
2024/01/13 00:53:41;;;;;;;15.93;8.55;;;-1.40;66.20;;;;;;5019812;28;115196;-82
2024/01/13 00:56:09;;;;;;;16.88;8.93;;;-1.40;66.20;;;;;;4986905;28;114611;-81
2024/01/13 00:58:40;;;;;;;17.52;10.00;;;-1.40;66.20;;;;;;4988356;28;114548;-81
2024/01/13 01:01:12;;;;;;;14.70;9.23;;;-1.40;66.20;;;;;;4987917;28;114805;-81
2024/01/13 01:03:43;;;;;;;16.52;9.82;;;-1.40;66.20;;;;;;4987605;28;115203;-81
2024/01/13 01:06:11;;;;;;;17.45;9.30;;;-1.40;66.20;;;;;;4988678;28;114921;-82
2024/01/13 01:08:40;;;;;;;17.70;9.35;;;-1.40;66.30;;;;;;4988039;28;114653;-80
2024/01/13 01:11:11;;;;;;;16.90;9.50;;;-1.40;66.30;;;;;;5002964;28;114832;-81
2024/01/13 01:13:39;;;;;;;16.40;8.77;;;-1.40;66.30;;;;;;4985875;28;115080;-80
2024/01/13 01:16:07;;;;;;;16.20;9.52;;;-1.40;66.20;;;;;;4985645;28;114681;-81
2024/01/13 01:18:35;;;;;;;15.15;9.30;;;-1.40;66.30;;;;;;4988529;28;114338;-80
2024/01/13 01:21:15;;;;;;;16.40;9.48;;;-1.40;66.30;;;;;;4989283;28;114608;-81
2024/01/13 01:23:47;;;;;;;13.82;8.93;;;-1.40;66.40;;;;;;4987851;28;115504;-81
2024/01/13 01:26:15;;;;;;;13.63;8.77;;;-1.40;66.40;;;;;;5003303;28;115596;-80
2024/01/13 01:28:42;;;;;;;16.05;9.02;;;-1.40;66.50;;;;;;4987550;28;114290;-80
2024/01/13 01:31:12;;;;;;;17.45;9.82;;;-1.40;66.60;;;;;;4988043;28;114447;-81
2024/01/13 01:33:41;;;;;;;15.48;9.27;;;-1.40;66.60;;;;;;4986365;28;115117;-81
2024/01/13 01:36:09;;;;;;;15.25;8.95;;;-1.40;66.50;;;;;;4986627;28;114718;-81
2024/01/13 01:38:37;;;;;;;18.42;10.15;;;-1.40;66.60;;;;;;4986830;28;114309;-82
2024/01/13 01:41:13;;;;;;;11.97;6.80;;;-1.40;66.60;;;;;;5003348;28;114313;-81
2024/01/13 01:43:42;;;;;;;14.07;8.25;;;-1.40;66.60;;;;;;4987514;28;116353;-81
2024/01/13 01:46:11;;;;;;;14.27;8.68;;;-1.40;66.60;;;;;;4986089;28;114607;-81
2024/01/13 01:48:41;;;;;;;15.95;9.32;;;-1.50;66.60;;;;;;4987568;28;114542;-82
2024/01/13 01:51:15;;;;;;;14.38;8.43;;;-1.40;66.60;;;;;;5019136;28;114571;-82
2024/01/13 01:53:44;;;;;;;12.02;7.95;;;-1.40;66.60;;;;;;4985586;28;115061;-81
2024/01/13 01:56:14;;;;;;;15.13;9.43;;;-1.50;66.60;;;;;;4985592;28;114543;-81
2024/01/13 01:58:42;;;;;;;14.70;8.40;;;-1.40;66.60;;;;;;4986049;28;114390;-81
2024/01/13 02:01:10;;;;;;;13.57;8.38;;;-1.50;66.60;;;;;;4986437;28;114665;-82
2024/01/13 02:03:39;;;;;;;15.55;9.20;;;-1.50;66.70;;;;;;4985694;28;114349;-82
2024/01/13 02:06:11;;;;;;;16.90;9.80;;;-1.50;66.70;;;;;;4985279;28;115811;-82
2024/01/13 02:08:41;;;;;;;15.00;9.23;;;-1.50;66.80;;;;;;4995536;28;114150;-82
2024/01/13 02:11:12;;;;;;;16.63;9.85;;;-1.50;66.80;;;;;;5003763;28;114340;-81
2024/01/13 02:13:47;;;;;;;18.60;9.90;;;-1.50;66.90;;;;;;4985049;28;115236;-80
2024/01/13 02:16:15;;;;;;;18.05;9.32;;;-1.50;66.90;;;;;;4985330;28;114904;-81
2024/01/13 02:18:43;;;;;;;16.48;9.52;;;-1.50;66.90;;;;;;4970669;28;114293;-81
2024/01/13 02:21:11;;;;;;;18.55;9.52;;;-1.50;66.90;;;;;;5023928;28;114597;-81
2024/01/13 02:23:41;;;;;;;17.27;10.07;;;-1.50;66.90;;;;;;5007376;28;115219;-80
2024/01/13 02:26:11;;;;;;;16.45;8.90;;;-1.50;66.90;;;;;;5001260;28;114660;-81
2024/01/13 02:28:39;;;;;;;16.20;8.73;;;-1.50;66.90;;;;;;4990441;28;114284;-81
2024/01/13 02:31:15;;;;;;;16.42;9.50;;;-1.50;66.90;;;;;;4991300;28;114528;-81
2024/01/13 02:33:48;;;;;;;12.63;7.30;;;-1.50;67.00;;;;;;4990689;28;115674;-81
2024/01/13 02:36:16;;;;;;;17.85;9.88;;;-1.50;67.00;;;;;;4989957;28;115159;-81
2024/01/13 02:38:44;;;;;;;17.35;9.65;;;-1.50;67.00;;;;;;4991038;28;114147;-81
2024/01/13 02:41:11;;;;;;;15.85;9.40;;;-1.50;67.00;;;;;;4990613;28;114373;-81
2024/01/13 02:43:39;;;;;;;18.15;10.00;;;-1.50;67.00;;;;;;4989438;28;114253;-81
2024/01/13 02:46:08;;;;;;;17.20;9.73;;;-1.60;67.00;;;;;;4974722;28;116077;-81
2024/01/13 02:48:44;;;;;;;16.38;8.68;;;-1.50;67.10;;;;;;4970832;28;114131;-80
2024/01/13 02:51:14;;;;;;;17.60;8.85;;;-1.60;67.20;;;;;;4985819;28;114452;-81
2024/01/13 02:53:43;;;;;;;17.45;9.23;;;-1.50;67.20;;;;;;5000595;28;115103;-80
2024/01/13 02:56:10;;;;;;;18.80;9.40;;;-1.50;67.30;;;;;;4984462;28;116666;-80
2024/01/13 02:58:38;;;;;;;17.30;8.70;;;-1.50;67.30;;;;;;4970170;28;114594;-81
2024/01/13 03:01:13;;;;;;;17.42;8.40;;;-1.50;67.30;;;;;;4970599;28;114337;-81
2024/01/13 03:03:43;;;;;;;16.25;8.50;;;-1.40;67.20;;;;;;4968800;28;116248;-81
2024/01/13 03:06:10;;;;;;;16.48;8.70;;;-1.50;67.20;;;;;;4969467;28;115398;-80
2024/01/13 03:08:38;;;;;;;15.77;8.10;;;-1.40;67.30;;;;;;4986123;28;114384;-80
2024/01/13 03:11:12;;;;;;;14.45;8.70;;;-1.40;67.30;;;;;;4970654;28;114699;-80
2024/01/13 03:13:43;;;;;;;13.82;7.70;;;-1.40;67.30;;;;;;4968108;28;115258;-80
2024/01/13 03:16:10;;;;;;;12.68;7.18;;;-1.40;67.30;;;;;;4967556;28;114627;-81
2024/01/13 03:18:38;;;;;;;14.02;7.88;;;-1.40;67.40;;;;;;4970431;28;114311;-81
2024/01/13 03:21:10;;;;;;;14.68;8.05;;;-1.40;67.40;;;;;;5002430;28;114243;-80
2024/01/13 03:23:40;;;;;;;16.02;8.57;;;-1.40;67.40;;;;;;5001477;28;115240;-81
2024/01/13 03:26:09;;;;;;;14.90;8.50;;;-1.40;67.40;;;;;;4969343;28;114802;-81
2024/01/13 03:28:37;;;;;;;17.48;9.38;;;-1.40;67.40;;;;;;4970800;28;114101;-81
2024/01/13 03:31:09;;;;;;;19.35;9.02;;;-1.40;67.40;;;;;;4969446;28;114655;-81
2024/01/13 03:33:39;;;;;;;15.93;8.57;;;-1.30;67.50;;;;;;4968547;28;115161;-80
2024/01/13 03:36:08;;;;;;;15.05;8.40;;;-1.30;67.50;;;;;;4984605;28;115112;-81
2024/01/13 03:38:36;;;;;;;18.05;8.13;;;-1.30;67.50;;;;;;4969120;28;114638;-81
2024/01/13 03:41:11;;;;;;;14.95;8.52;;;-1.30;67.50;;;;;;4969358;28;114806;-82
2024/01/13 03:43:39;;;;;;;15.85;9.15;;;-1.30;67.50;;;;;;4968320;28;115265;-81
2024/01/13 03:46:06;;;;;;;14.38;8.50;;;-1.20;67.50;;;;;;4983343;28;116663;-81
2024/01/13 03:48:34;;;;;;;16.52;9.32;;;-1.20;67.50;;;;;;5005976;28;114454;-81
2024/01/13 03:51:02;;;;;;;15.10;8.45;;;-1.20;67.50;;;;;;4975145;28;114165;-81
2024/01/13 03:53:34;;;;;;;13.20;7.95;;;-1.10;67.50;;;;;;4983070;28;115087;-81
2024/01/13 03:56:05;;;;;;;16.58;9.07;;;-1.20;67.40;;;;;;4999784;28;114913;-81
2024/01/13 03:58:35;;;;;;;15.90;9.25;;;-1.10;67.50;;;;;;4969210;28;114644;-81
2024/01/13 04:01:02;;;;;;;16.10;9.20;;;-1.20;67.50;;;;;;4967939;28;114553;-81
2024/01/13 04:03:30;;;;;;;14.30;7.78;;;-1.10;67.50;;;;;;4983032;28;115572;-82
2024/01/13 04:06:02;;;;;;;17.83;9.90;;;-1.10;67.50;;;;;;4966588;28;114639;-82
2024/01/13 04:08:32;;;;;;;17.63;9.77;;;-1.10;67.60;;;;;;4968629;28;114499;-80
2024/01/13 04:11:01;;;;;;;15.57;8.90;;;-1.20;67.50;;;;;;4986628;28;114343;-81
2024/01/13 04:13:28;;;;;;;17.42;10.02;;;-1.10;67.60;;;;;;4991771;28;113852;-81
2024/01/13 04:15:55;;;;;;;17.88;9.65;;;-1.10;67.70;;;;;;4967295;28;114557;-80
2024/01/13 04:18:22;;;;;;;20.60;10.77;;;-1.10;67.70;;;;;;4984046;28;114380;-81
2024/01/13 04:20:50;;;;;;;15.75;9.30;;;-1.10;67.70;;;;;;4983584;28;114444;-80
2024/01/13 04:23:29;;;;;;;18.48;10.38;;;-1.00;67.80;;;;;;4951804;28;115745;-82
2024/01/13 04:25:58;;;;;;;18.15;9.85;;;-1.00;67.80;;;;;;4999427;28;115030;-81
2024/01/13 04:28:25;;;;;;;19.38;10.02;;;-1.00;67.90;;;;;;4968238;28;114386;-81
2024/01/13 04:30:52;;;;;;;17.58;9.82;;;-0.90;67.90;;;;;;4983809;28;114433;-81
2024/01/13 04:33:20;;;;;;;19.75;9.55;;;-1.00;67.90;;;;;;4966361;28;115307;-81
2024/01/13 04:35:47;;;;;;;19.15;10.50;;;-0.90;67.90;;;;;;4966291;28;114613;-81
2024/01/13 04:38:15;;;;;;;19.70;9.73;;;-1.00;67.80;;;;;;4968304;28;114477;-81
2024/01/13 04:40:42;;;;;;;22.45;9.60;;;-1.00;67.90;;;;;;4984078;28;114637;-81
2024/01/13 04:43:09;;;;;;;18.70;10.07;;;-1.00;68.00;;;;;;4982496;28;115216;-81
2024/01/13 04:45:37;;;;;;;20.38;10.57;;;-1.00;68.00;;;;;;4981903;28;115024;-81
2024/01/13 04:48:04;;;;;;;20.98;10.70;;;-1.00;68.10;;;;;;4983241;28;114610;-81
2024/01/13 04:50:32;;;;;;;17.40;9.27;;;-1.00;68.00;;;;;;4999800;28;114322;-81
2024/01/13 04:52:59;;;;;;;21.85;11.05;;;-1.00;68.10;;;;;;4982173;28;115132;-81
2024/01/13 04:55:27;;;;;;;18.38;10.63;;;-1.00;68.20;;;;;;4998781;28;114541;-81
2024/01/13 04:57:54;;;;;;;21.13;10.63;;;-1.00;68.20;;;;;;4999826;28;114370;-81
2024/01/13 05:00:21;;;;;;;22.67;11.27;;;-1.10;68.20;;;;;;4968104;28;114269;-82
2024/01/13 05:02:52;;;;;;;19.88;10.00;;;-1.00;68.30;;;;;;4966943;28;115446;-82
2024/01/13 05:05:26;;;;;;;21.35;10.40;;;-1.00;68.30;;;;;;4965522;28;115657;-82
2024/01/13 05:07:55;;;;;;;19.38;9.73;;;-1.00;68.30;;;;;;4982365;28;114647;-82
2024/01/13 05:10:25;;;;;;;18.27;10.40;;;-1.10;68.30;;;;;;4983616;28;114454;-82
2024/01/13 05:12:53;;;;;;;21.35;10.63;;;-1.00;68.40;;;;;;5016417;28;115059;-81
2024/01/13 05:15:22;;;;;;;19.08;9.32;;;-1.10;68.40;;;;;;4984974;28;115860;-82
2024/01/13 05:17:49;;;;;;;21.17;10.77;;;-1.10;68.40;;;;;;4953765;28;114259;-83
2024/01/13 05:20:17;;;;;;;18.25;8.85;;;-1.10;68.50;;;;;;4986336;28;114684;-81
2024/01/13 05:22:44;;;;;;;17.08;8.90;;;-1.10;68.50;;;;;;4986760;28;115867;-80
2024/01/13 05:25:14;;;;;;;15.52;8.48;;;-1.10;68.60;;;;;;4985716;28;114719;-82
2024/01/13 05:27:42;;;;;;;17.80;8.93;;;-1.10;68.60;;;;;;5005406;28;114496;-81
2024/01/13 05:30:10;;;;;;;15.15;8.38;;;-1.10;68.60;;;;;;4996685;28;114228;-82
2024/01/13 05:32:39;;;;;;;17.65;8.63;;;-1.10;68.60;;;;;;4986252;28;115189;-82
2024/01/13 05:35:08;;;;;;;15.43;8.70;;;-1.10;68.60;;;;;;4985966;28;118080;-82
2024/01/13 05:37:36;;;;;;;16.23;7.85;;;-1.10;68.60;;;;;;4987580;28;114226;-82
2024/01/13 05:40:05;;;;;;;14.88;8.15;;;-1.00;68.60;;;;;;4987814;28;114490;-80
2024/01/13 05:42:33;;;;;;;16.48;7.93;;;-1.00;68.60;;;;;;4985343;28;115154;-80
2024/01/13 05:45:00;;;;;;;14.77;8.00;;;-1.00;68.60;;;;;;4986839;28;114804;-83
2024/01/13 05:47:28;;;;;;;17.85;9.02;;;-0.90;68.60;;;;;;4986710;28;114729;-80
2024/01/13 05:49:55;;;;;;;14.85;7.53;;;-0.90;68.70;;;;;;4986763;28;114187;-82
2024/01/13 05:52:25;;;;;;;15.48;8.18;;;-0.90;68.60;;;;;;4986317;28;115249;-82
2024/01/13 05:54:53;;;;;;;15.23;9.00;;;-0.90;68.60;;;;;;5000901;28;115132;-81
2024/01/13 05:57:21;;;;;;;16.75;8.85;;;-0.90;68.60;;;;;;4986216;28;114382;-81
2024/01/13 05:59:50;;;;;;;14.68;7.72;;;-0.90;68.60;;;;;;4989865;28;114651;-82
2024/01/13 06:02:17;;;;;;;15.25;8.57;;;-0.80;68.60;;;;;;5004297;28;118394;-80
2024/01/13 06:04:46;;;;;;;16.95;9.48;;;-0.80;68.60;;;;;;5005379;28;114293;-82
2024/01/13 06:07:14;;;;;;;17.60;9.02;;;-0.80;68.50;;;;;;4992491;28;114227;-81
2024/01/13 06:09:41;;;;;;;12.00;7.68;;;-0.90;68.50;;;;;;4990292;28;114394;-82
2024/01/13 06:12:12;;;;;;;14.13;9.13;;;-0.80;68.60;;;;;;4972522;28;115028;-81
2024/01/13 06:14:41;;;;;;;16.42;9.10;;;-0.80;68.60;;;;;;4989385;28;114678;-81
2024/01/13 06:17:09;;;;;;;15.60;8.65;;;-0.80;68.50;;;;;;4990434;28;114760;-82
2024/01/13 06:19:36;;;;;;;17.20;9.57;;;-0.80;68.50;;;;;;4990702;28;114435;-81
2024/01/13 06:22:03;;;;;;;16.60;8.90;;;-0.80;68.40;;;;;;4989600;28;115583;-82
2024/01/13 06:24:31;;;;;;;15.50;8.32;;;-0.80;68.40;;;;;;4989493;28;114613;-81
2024/01/13 06:26:59;;;;;;;17.20;8.75;;;-0.80;68.40;;;;;;4989820;28;114208;-81
2024/01/13 06:29:27;;;;;;;20.50;10.02;;;-0.80;68.40;;;;;;4990146;28;114247;-82
2024/01/13 06:31:56;;;;;;;18.25;9.10;;;-0.80;68.40;;;;;;4987991;28;116303;-80
2024/01/13 06:34:23;;;;;;;16.40;9.52;;;-0.80;68.40;;;;;;4989251;28;114644;-81
2024/01/13 06:36:51;;;;;;;15.65;8.57;;;-0.80;68.30;;;;;;4965373;28;115615;-80
2024/01/13 06:39:18;;;;;;;15.63;8.32;;;-0.80;68.40;;;;;;4978414;28;114999;-80
2024/01/13 06:41:46;;;;;;;18.88;9.60;;;-0.80;68.40;;;;;;4992160;27;115467;-80
2024/01/13 06:44:13;;;;;;;15.93;9.00;;;-0.70;68.40;;;;;;4998723;28;116292;-80
2024/01/13 06:46:40;;;;;;;14.10;8.55;;;-0.70;68.40;;;;;;4995584;28;114597;-80
2024/01/13 06:49:07;;;;;;;16.20;9.07;;;-0.60;68.40;;;;;;4995641;28;114576;-79
2024/01/13 06:51:35;;;;;;;17.52;9.45;;;-0.70;68.40;;;;;;4993391;27;115202;-81
2024/01/13 06:54:03;;;;;;;14.25;8.60;;;-0.60;68.40;;;;;;4998829;28;118538;-81
2024/01/13 06:56:30;;;;;;;17.08;8.43;;;-0.60;68.30;;;;;;4993897;28;114430;-82
2024/01/13 06:58:57;;;;;;;17.75;9.23;;;-0.60;68.30;;;;;;5008726;28;114441;-81
2024/01/13 07:01:24;;;;;;;16.48;8.57;;;-0.60;68.30;;;;;;5006714;28;116174;-82
2024/01/13 07:03:52;;;;;;;16.13;8.52;;;-0.60;68.30;;;;;;5007938;28;114710;-80
2024/01/13 07:06:19;;;;;;;15.18;8.68;;;-0.60;68.30;;;;;;5006883;28;114748;-81
2024/01/13 07:08:47;;;;;;;16.77;9.35;;;-0.50;68.30;;;;;;5014336;28;114433;-80
2024/01/13 07:11:14;;;;;;;16.05;8.20;;;-0.60;68.30;;;;;;5007619;27;115632;-81
2024/01/13 07:13:43;;;;;;;19.10;9.32;;;-0.60;68.30;;;;;;5008475;28;114917;-82
2024/01/13 07:16:11;;;;;;;17.75;8.60;;;-0.60;68.20;;;;;;4993743;27;114656;-82
2024/01/13 07:18:38;;;;;;;15.43;8.85;;;-0.50;68.20;;;;;;4967492;28;114757;-81
2024/01/13 07:21:06;;;;;;;14.57;8.40;;;-0.50;68.20;;;;;;4977655;27;116210;-81
2024/01/13 07:23:33;;;;;;;15.57;8.63;;;-0.50;68.20;;;;;;4984757;28;114622;-83
2024/01/13 07:26:01;;;;;;;17.60;9.90;;;-0.40;68.10;;;;;;5020050;27;114402;-82
2024/01/13 07:28:30;;;;;;;16.77;9.55;;;-0.40;68.10;;;;;;5023302;28;115331;-82
2024/01/13 07:30:57;;;;;;;21.08;10.60;;;-0.40;68.10;;;;;;5006095;28;115225;-82
2024/01/13 07:33:25;;;;;;;17.15;9.73;;;-0.40;68.10;;;;;;5006501;28;114880;-82
2024/01/13 07:35:52;;;;;;;16.95;9.43;;;-0.40;68.00;;;;;;5007974;27;114420;-82
2024/01/13 07:38:20;;;;;;;16.17;9.02;;;-0.40;68.00;;;;;;5006699;28;114340;-82
2024/01/13 07:40:47;;;;;;;16.65;9.77;;;-0.40;67.90;;;;;;5007149;28;115234;-82
2024/01/13 07:43:14;;;;;;;17.35;9.18;;;-0.30;68.00;;;;;;5004967;28;116905;-82
2024/01/13 07:45:42;;;;;;;20.52;10.07;;;-0.30;68.10;;;;;;5010919;28;114720;-82
2024/01/13 07:48:09;;;;;;;18.15;9.32;;;-0.30;68.20;;;;;;4994097;28;114440;-81
2024/01/13 07:50:36;;;;;;;18.25;9.77;;;-0.30;68.10;;;;;;4992432;27;115349;-81
2024/01/13 07:53:04;;;;;;;18.20;9.10;;;-0.30;68.00;;;;;;4987846;28;117408;-82
2024/01/13 07:55:31;;;;;;;18.38;10.45;;;-0.30;67.90;;;;;;4998350;28;114876;-82
2024/01/13 07:58:06;;;;;;;19.67;10.57;;;-0.30;67.80;;;;;;5009401;28;114507;-82
2024/01/13 08:00:33;;;;;;;19.33;10.27;;;-0.30;67.70;;;;;;5010831;27;114419;-82
2024/01/13 08:03:01;;;;;;;24.05;11.77;;;-0.20;67.60;;;;;;4996683;28;114743;-82
2024/01/13 08:05:28;;;;;;;21.45;10.90;;;-0.30;67.70;;;;;;4993014;28;118861;-82
2024/01/13 08:08:01;;;;;;;17.17;9.48;;;-0.30;68.20;;;;;;4984552;28;114358;-81
2024/01/13 08:10:29;;;;;;;17.90;9.57;;;-0.20;68.30;;;;;;4983451;28;115187;-82
2024/01/13 08:12:57;;;;;;;19.98;10.57;;;-0.20;67.90;;;;;;4985915;28;115171;-81
2024/01/13 08:15:24;;;;;;;20.75;11.02;;;-0.20;67.70;;;;;;4985348;28;114554;-82
2024/01/13 08:17:54;;;;;;;19.40;10.65;;;-0.20;67.70;;;;;;4984443;28;114531;-82
2024/01/13 08:20:25;;;;;;;20.95;10.40;;;-0.20;67.60;;;;;;4986934;28;116443;-82
2024/01/13 08:22:52;;;;;;;17.92;10.05;;;-0.20;67.60;;;;;;4986436;28;115232;-82
2024/01/13 08:25:19;;;;;;;19.52;10.10;;;-0.20;67.50;;;;;;5007068;27;114354;-82
2024/01/13 08:27:47;;;;;;;17.65;8.98;;;-0.20;67.40;;;;;;5007572;28;114370;-82
2024/01/13 08:30:14;;;;;;;15.77;9.40;;;-0.20;67.40;;;;;;5003770;27;116319;-82
2024/01/13 08:32:42;;;;;;;21.27;9.95;;;-0.10;67.40;;;;;;4985812;28;114519;-82
2024/01/13 08:35:09;;;;;;;17.20;10.20;;;-0.20;67.50;;;;;;4981166;28;114730;-82
2024/01/13 08:37:36;;;;;;;18.63;9.15;;;-0.10;67.40;;;;;;4988345;28;114627;-82
2024/01/13 08:40:09;;;;;;;18.45;9.90;;;-0.10;67.30;;;;;;4987501;28;115023;-80
2024/01/13 08:42:37;;;;;;;19.10;9.68;;;-0.10;67.20;;;;;;4966949;28;115836;-81
2024/01/13 08:45:05;;;;;;;15.23;8.52;;;-0.10;67.20;;;;;;4988036;28;114868;-80
2024/01/13 08:47:33;;;;;;;19.70;9.45;;;-0.10;67.10;;;;;;4998128;28;114548;-81
2024/01/13 08:50:00;;;;;;;18.55;9.50;;;-0.10;67.10;;;;;;4989314;28;115205;-82
2024/01/13 08:52:28;;;;;;;18.05;9.30;;;-0.10;67.10;;;;;;4965654;28;117458;-81
2024/01/13 08:54:58;;;;;;;19.25;10.10;;;0.00;67.10;;;;;;4985644;28;114632;-81
2024/01/13 08:57:26;;;;;;;16.48;8.73;;;0.00;67.00;;;;;;4985551;28;114589;-82
2024/01/13 08:59:54;;;;;;;15.40;8.98;;;0.00;67.00;;;;;;4985232;28;116669;-81
2024/01/13 09:02:21;;;;;;;15.35;8.70;;;0.00;66.90;;;;;;5001080;28;115057;-81
2024/01/13 09:04:50;;;;;;;16.85;7.97;;;0.00;66.90;;;;;;4985512;28;114465;-81
2024/01/13 09:07:17;;;;;;;17.23;10.07;;;0.00;66.90;;;;;;4987727;28;117219;-81
2024/01/13 09:09:44;;;;;;;18.95;11.38;;;0.10;66.90;;;;;;4953372;28;118165;-82
2024/01/13 09:12:12;;;;;;;17.10;9.57;;;0.10;66.70;;;;;;4986094;28;114865;-81
2024/01/13 09:14:45;;;;;;;18.05;10.75;;;0.10;66.70;;;;;;4967741;28;114810;-81
2024/01/13 09:17:13;;;;;;;16.13;9.63;;;0.00;66.70;;;;;;4984717;28;114644;-81
2024/01/13 09:19:43;;;;;;;16.60;9.70;;;0.10;66.70;;;;;;4985874;28;115271;-82
2024/01/13 09:22:10;;;;;;;19.67;10.63;;;0.10;66.70;;;;;;4985012;28;115913;-80
2024/01/13 09:24:38;;;;;;;18.27;10.38;;;0.10;66.70;;;;;;4985540;28;114443;-81
2024/01/13 09:27:05;;;;;;;18.00;9.45;;;0.10;66.60;;;;;;4985444;28;114492;-82
2024/01/13 09:29:32;;;;;;;15.15;8.32;;;0.10;66.60;;;;;;4983450;28;115205;-82
2024/01/13 09:32:00;;;;;;;15.93;8.32;;;0.20;66.50;;;;;;4994609;28;115224;-81
2024/01/13 09:34:37;;;;;;;18.98;8.68;;;0.20;66.40;;;;;;5007840;28;114825;-81
2024/01/13 09:37:05;;;;;;;14.77;8.13;;;0.10;66.40;;;;;;4979954;28;114940;-81
2024/01/13 09:39:32;;;;;;;17.02;9.02;;;0.10;66.40;;;;;;5013896;28;115294;-81
2024/01/13 09:42:00;;;;;;;14.05;7.95;;;0.20;66.50;;;;;;4994122;28;115150;-81
2024/01/13 09:44:32;;;;;;;15.77;9.13;;;0.20;66.50;;;;;;4992077;28;114636;-82
2024/01/13 09:47:00;;;;;;;16.05;8.20;;;0.30;66.50;;;;;;5008891;28;114720;-81
2024/01/13 09:49:30;;;;;;;13.00;7.75;;;0.30;66.50;;;;;;4979550;28;115034;-81
2024/01/13 09:52:02;;;;;;;15.68;7.80;;;0.40;66.40;;;;;;4981443;28;114670;-81
2024/01/13 09:54:33;;;;;;;18.40;8.30;;;0.40;66.30;;;;;;4997178;28;114553;-80
2024/01/13 09:57:00;;;;;;;16.55;9.90;;;0.40;66.20;;;;;;5008970;28;114403;-82
2024/01/13 09:59:28;;;;;;;18.10;9.45;;;0.40;66.20;;;;;;4991323;28;114991;-82
2024/01/13 10:02:00;;;;;;;15.48;8.43;;;0.40;66.10;;;;;;5006577;28;116648;-82
2024/01/13 10:04:29;;;;;;;14.05;8.02;;;0.40;66.10;;;;;;4992632;28;114635;-84
2024/01/13 10:06:57;;;;;;;15.45;9.07;;;0.50;66.10;;;;;;5004380;28;114429;-81
2024/01/13 10:09:25;;;;;;;13.40;8.60;;;0.50;66.10;;;;;;4975410;28;116133;-81
2024/01/13 10:12:06;;;;;;;16.30;9.07;;;0.50;66.10;;;;;;4986188;28;115504;-81
2024/01/13 10:14:40;;;;;;;14.85;8.90;;;0.60;65.90;;;;;;4986872;28;114674;-81
2024/01/13 10:17:11;;;;;;;17.85;9.73;;;0.60;65.90;;;;;;4989943;28;115996;-81
2024/01/13 10:19:45;;;;;;;13.82;8.18;;;0.60;65.90;;;;;;4989534;28;115465;-81
2024/01/13 10:22:15;;;;;;;17.27;9.23;;;0.60;65.80;;;;;;4998856;28;116871;-81
2024/01/13 10:24:43;;;;;;;13.95;7.90;;;0.60;65.60;;;;;;5008223;28;114600;-82
2024/01/13 10:27:10;;;;;;;14.45;8.52;;;0.50;65.60;;;;;;5028487;28;115309;-82
2024/01/13 10:29:42;;;;;;;14.55;8.70;;;0.60;65.60;;;;;;4999994;28;114416;-82
2024/01/13 10:32:10;;;;;;;14.73;7.95;;;0.60;65.70;;;;;;5017703;28;114633;-82
2024/01/13 10:34:46;;;;;;;15.93;8.80;;;0.60;65.70;;;;;;4998026;28;114718;-81
2024/01/13 10:37:14;;;;;;;17.60;8.38;;;0.70;65.60;;;;;;4988006;28;114391;-82
2024/01/13 10:39:43;;;;;;;14.68;8.77;;;0.70;65.60;;;;;;4965268;28;115151;-82
2024/01/13 10:42:11;;;;;;;15.68;8.57;;;0.70;65.40;;;;;;4967930;28;114702;-81
2024/01/13 10:44:45;;;;;;;13.90;8.55;;;0.70;65.30;;;;;;4951226;28;114817;-81
2024/01/13 10:47:14;;;;;;;15.88;8.85;;;0.80;65.40;;;;;;4932604;28;115019;-81
2024/01/13 10:49:47;;;;;;;15.00;8.55;;;0.80;65.30;;;;;;4945718;28;118070;-82
2024/01/13 10:52:17;;;;;;;15.27;7.82;;;0.90;65.30;;;;;;4914467;28;114944;-82
2024/01/13 10:54:45;;;;;;;14.15;8.45;;;0.80;65.20;;;;;;4930774;28;115126;-81
2024/01/13 10:59:47;;;;;;;15.63;9.40;;;0.90;65.00;;;;;;4929005;28;115598;-81
2024/01/13 11:02:20;;;;;;;13.70;8.35;;;0.90;64.90;;;;;;4929715;28;114745;-81
2024/01/13 11:04:50;;;;;;;16.20;9.50;;;1.00;64.90;;;;;;4948648;28;114397;-80
2024/01/13 11:07:20;;;;;;;14.05;8.25;;;1.00;64.90;;;;;;4917946;28;114647;-81
2024/01/13 11:09:50;;;;;;;15.13;9.00;;;1.00;64.80;;;;;;4953142;28;115842;-81
2024/01/13 11:12:24;;;;;;;13.82;8.85;;;1.00;64.80;;;;;;4946613;28;115052;-81
2024/01/13 11:15:08;;;;;;;;;;;1.00;64.70;;;;;;4934729;28;114792;-80
2024/01/13 11:17:36;;;;;;;15.50;8.30;;;1.10;64.90;;;;;;4950195;28;114634;-80
2024/01/13 11:20:11;;;;;;;14.07;8.40;;;1.10;64.70;;;;;;4964486;28;117543;-82
2024/01/13 11:22:42;;;;;;;14.63;8.38;;;1.10;64.60;;;;;;4991376;28;117227;-79
2024/01/13 11:25:26;;;;;;;14.63;8.07;;;1.10;64.60;;;;;;4982774;28;114782;-82
2024/01/13 11:28:01;;;;;;;15.38;8.32;;;1.10;64.50;;;;;;4952480;28;114783;-80
2024/01/13 11:30:40;;;;;;;13.85;7.80;;;1.10;64.40;;;;;;4983204;28;115068;-80
2024/01/13 11:33:13;;;;;;;11.82;7.13;;;1.10;64.40;;;;;;4969780;28;114614;-80
2024/01/13 11:35:47;;;;;;;17.67;8.32;;;1.10;64.50;;;;;;4994889;28;114519;-81
2024/01/13 11:38:16;;;;;;;16.00;8.18;;;1.20;64.50;;;;;;4983418;28;114464;-81
2024/01/13 11:40:46;;;;;;;18.67;9.20;;;1.20;64.50;;;;;;4966697;28;115154;-81
2024/01/13 11:43:23;;;;;;;15.40;8.05;;;1.20;64.40;;;;;;4933615;28;117154;-81
2024/01/13 11:45:53;;;;;;;13.20;7.18;;;1.20;64.40;;;;;;4966875;28;114398;-81
2024/01/13 11:48:41;;;;;;;12.02;7.40;;;1.20;64.20;;;;;;4991608;28;114918;-80
2024/01/13 11:51:18;;;;;;;17.13;7.60;;;1.20;64.00;;;;;;4968343;28;114525;-80
2024/01/13 11:53:59;;;;;;;13.93;7.00;;;1.20;64.00;;;;;;4965444;28;115201;-81
2024/01/13 11:56:26;;;;;;;13.45;6.72;;;1.20;64.00;;;;;;4964954;28;114777;-80
2024/01/13 11:58:53;;;;;;;9.73;6.20;;;1.30;63.80;;;;;;4983200;28;114841;-80
2024/01/13 12:01:22;;;;;;;13.32;6.53;;;1.20;63.70;;;;;;4987152;28;116530;-79
2024/01/13 12:04:00;;;;;;;11.63;6.45;;;1.20;63.70;;;;;;4962373;28;114940;-81
2024/01/13 12:06:27;;;;;;;14.65;6.78;;;1.20;63.70;;;;;;4983260;28;115940;-81
2024/01/13 12:08:55;;;;;;;12.40;7.53;;;1.20;63.70;;;;;;4966175;28;114600;-81
2024/01/13 12:11:23;;;;;;;12.45;6.95;;;1.20;63.60;;;;;;4976666;28;116613;-81
2024/01/13 12:14:04;;;;;;;14.05;6.97;;;1.20;63.70;;;;;;4966385;28;117090;-81
2024/01/13 12:16:34;;;;;;;11.35;7.47;;;1.20;63.70;;;;;;4956959;28;114846;-81
2024/01/13 12:19:01;;;;;;;12.48;7.05;;;1.20;63.70;;;;;;4967458;28;114828;-81
2024/01/13 12:21:28;;;;;;;13.73;7.10;;;1.30;63.70;;;;;;4990299;28;115140;-80
2024/01/13 12:24:08;;;;;;;13.05;7.65;;;1.20;63.70;;;;;;4962206;28;115066;-82
2024/01/13 12:26:36;;;;;;;10.57;7.20;;;1.30;63.60;;;;;;4965714;28;114640;-80
2024/01/13 12:29:05;;;;;;;11.85;7.10;;;1.30;63.50;;;;;;4967048;28;114609;-79
2024/01/13 12:31:32;;;;;;;12.07;6.60;;;1.20;63.40;;;;;;5005678;28;117734;-81
2024/01/13 12:34:15;;;;;;;10.88;6.43;;;1.20;63.40;;;;;;4981866;28;114743;-81
2024/01/13 12:36:43;;;;;;;11.60;6.50;;;1.20;63.40;;;;;;4985752;28;114473;-81
2024/01/13 12:39:10;;;;;;;12.00;6.10;;;1.20;63.50;;;;;;4971015;28;115788;-81
2024/01/13 12:41:38;;;;;;;11.88;7.30;;;1.20;63.30;;;;;;4964665;28;115090;-81